createdAt,value
2023-03-02T00:01:44.150Z,1.00
2023-03-02T00:06:49.223Z,1.02
2023-03-02T00:11:52.223Z,1.10
2023-03-02T00:16:54.993Z,1.50
2023-03-02T00:21:57.841Z,1.10
2023-03-02T00:27:00.879Z,0.82
2023-03-02T00:32:05.348Z,1.02
2023-03-02T00:37:08.378Z,0.70
2023-03-02T00:42:11.378Z,1.00
2023-03-02T00:47:14.290Z,0.93
2023-03-02T00:52:17.894Z,0.93
2023-03-02T00:57:20.669Z,0.70
2023-03-02T01:02:23.733Z,1.30
2023-03-02T01:07:28.672Z,0.90
2023-03-02T01:12:32.097Z,0.68
2023-03-02T01:17:35.292Z,0.60
2023-03-02T01:22:38.260Z,0.68
2023-03-02T01:27:41.018Z,0.82
2023-03-02T01:32:43.980Z,1.05
2023-03-02T01:37:46.885Z,0.82
2023-03-02T01:42:57.379Z,1.20
2023-03-02T01:48:00.246Z,0.65
2023-03-02T01:53:04.718Z,0.77
2023-03-02T01:58:08.602Z,0.90
2023-03-02T02:03:16.548Z,1.02
2023-03-02T02:08:19.529Z,0.90
2023-03-02T02:13:22.829Z,0.93
2023-03-02T02:18:26.780Z,1.00
2023-03-02T02:34:02.199Z,2.05
2023-03-02T02:39:07.879Z,1.45
2023-03-02T02:44:16.313Z,1.38
2023-03-02T02:49:33.521Z,1.42
2023-03-02T02:54:37.882Z,3.15
2023-03-02T02:59:46.551Z,2.53
2023-03-02T03:04:49.511Z,2.50
2023-03-02T03:10:01.206Z,2.05
2023-03-02T03:15:07.882Z,1.63
2023-03-02T03:20:16.522Z,1.55
2023-03-02T03:25:22.408Z,1.20
2023-03-02T03:30:26.040Z,1.17
2023-03-02T03:35:29.285Z,1.73
2023-03-02T03:40:34.545Z,1.60
2023-03-02T03:45:38.826Z,2.17
2023-03-02T03:50:41.828Z,1.70
2023-03-02T03:55:44.816Z,2.45
2023-03-02T04:00:47.893Z,1.63
2023-03-02T04:05:50.957Z,1.77
2023-03-02T04:10:54.225Z,2.20
2023-03-02T04:15:57.403Z,2.25
2023-03-02T04:21:00.555Z,1.90
2023-03-02T04:26:05.365Z,2.30
2023-03-02T04:31:09.091Z,2.03
2023-03-02T04:36:12.521Z,2.72
2023-03-02T04:41:17.177Z,2.97
2023-03-02T04:46:23.739Z,2.65
2023-03-02T04:51:30.931Z,3.55
2023-03-02T04:56:35.189Z,2.88
2023-03-02T05:01:38.392Z,3.03
2023-03-02T05:06:41.297Z,2.47
2023-03-02T05:11:44.218Z,3.03
2023-03-02T05:16:47.153Z,2.95
2023-03-02T05:21:50.275Z,3.50
2023-03-02T05:26:53.239Z,3.25
2023-03-02T05:31:56.352Z,3.20
2023-03-02T05:37:00.701Z,3.75
2023-03-02T05:42:06.698Z,2.75
2023-03-02T05:47:12.274Z,3.00
2023-03-02T05:52:15.360Z,3.00
2023-03-02T05:57:18.367Z,2.40
2023-03-02T06:02:21.800Z,2.65
2023-03-02T06:07:33.620Z,3.05
2023-03-02T06:12:40.667Z,2.50
2023-03-02T06:17:49.711Z,2.90
2023-03-02T06:22:58.966Z,2.63
2023-03-02T06:28:07.619Z,2.83
2023-03-02T06:33:32.895Z,2.90
2023-03-02T06:38:42.453Z,3.17
2023-03-02T06:43:47.458Z,2.20
2023-03-02T06:48:50.601Z,2.58
2023-03-02T06:53:53.497Z,2.20
2023-03-02T06:58:56.784Z,2.65
2023-03-02T07:04:00.191Z,2.92
2023-03-02T07:09:03.540Z,2.33
2023-03-02T07:14:07.936Z,1.52
2023-03-02T07:19:14.272Z,1.90
2023-03-02T07:24:20.983Z,1.73
2023-03-02T07:29:29.268Z,2.00
2023-03-02T07:34:39.947Z,2.40
2023-03-02T07:39:44.794Z,1.48
2023-03-02T07:44:48.355Z,1.70
2023-03-02T07:49:51.485Z,1.48
2023-03-02T07:54:54.502Z,1.45
2023-03-02T07:59:57.585Z,1.15
2023-03-02T08:05:00.710Z,0.90
2023-03-02T08:10:05.136Z,1.40
2023-03-02T08:15:08.890Z,1.13
2023-03-02T08:20:14.622Z,1.38
2023-03-02T08:25:19.606Z,1.13
2023-03-02T08:30:23.656Z,1.70
2023-03-02T08:35:26.918Z,0.75
2023-03-02T08:40:30.705Z,1.05
2023-03-02T08:45:35.413Z,1.10
2023-03-02T08:56:03.513Z,0.98
2023-03-02T09:01:17.578Z,0.80
2023-03-02T09:06:29.880Z,0.88
2023-03-02T09:11:35.306Z,0.80
2023-03-02T09:16:39.508Z,0.80
2023-03-02T09:21:42.955Z,0.63
2023-03-02T09:26:46.004Z,0.40
2023-03-02T09:31:49.688Z,0.88
2023-03-02T09:36:52.998Z,0.70
2023-03-02T09:47:41.425Z,0.40
2023-03-02T09:53:26.520Z,0.30
2023-03-02T10:13:59.368Z,0.40
2023-03-02T10:26:01.217Z,0.82
2023-03-02T10:31:18.788Z,0.40
2023-03-02T10:41:43.299Z,0.63
2023-03-02T10:46:47.564Z,1.00
2023-03-02T10:51:57.727Z,0.47
2023-03-02T10:57:03.532Z,0.90
2023-03-02T11:07:29.206Z,0.50
2023-03-02T11:12:35.693Z,0.45
2023-03-02T11:17:41.119Z,0.80
2023-03-02T11:22:53.252Z,0.50
2023-03-02T11:28:05.920Z,0.40
2023-03-02T11:33:24.577Z,0.63
2023-03-02T11:38:37.373Z,0.50
2023-03-02T11:43:40.495Z,0.52
2023-03-02T11:48:49.115Z,0.70
2023-03-02T11:59:20.690Z,1.10
2023-03-02T12:09:36.675Z,0.60
2023-03-02T12:14:43.527Z,2.15
2023-03-02T12:19:47.702Z,1.13
2023-03-02T12:25:02.013Z,0.60
2023-03-02T12:35:23.033Z,0.77
2023-03-02T12:46:22.479Z,1.00
2023-03-02T12:51:31.293Z,2.10
2023-03-02T12:56:36.336Z,1.05
2023-03-02T13:01:39.555Z,1.40
2023-03-02T13:06:42.519Z,1.00
2023-03-02T13:11:47.027Z,1.35
2023-03-02T13:17:03.889Z,0.57
2023-03-02T13:22:11.285Z,0.90
2023-03-02T13:27:20.607Z,0.60
2023-03-02T13:32:27.464Z,0.75
2023-03-02T13:37:44.093Z,0.70
2023-03-02T13:42:47.227Z,0.70
2023-03-02T13:47:50.422Z,0.60
2023-03-02T13:52:56.760Z,0.50
2023-03-02T13:58:01.056Z,0.68
2023-03-02T14:03:18.110Z,1.23
2023-03-02T14:08:22.572Z,0.95
2023-03-02T14:13:30.655Z,1.00
2023-03-02T14:23:47.151Z,0.82
2023-03-02T14:28:59.847Z,0.90
2023-03-02T14:34:13.592Z,1.15
2023-03-02T14:39:24.217Z,1.67
2023-03-02T14:44:27.005Z,1.05
2023-03-02T14:49:29.941Z,1.58
2023-03-02T14:54:45.257Z,0.95
2023-03-02T14:59:49.259Z,0.82
2023-03-02T15:04:56.545Z,1.17
2023-03-02T15:09:59.660Z,0.90
2023-03-02T15:15:02.715Z,0.90
2023-03-02T15:20:07.054Z,1.00
2023-03-02T15:25:10.302Z,1.55
2023-03-02T15:30:13.478Z,1.17
2023-03-02T15:35:18.990Z,0.80
2023-03-02T15:40:21.966Z,1.00
2023-03-02T15:45:26.139Z,0.88
2023-03-02T15:50:28.994Z,1.10
2023-03-02T15:55:34.806Z,1.02
2023-03-02T16:00:38.747Z,0.98
2023-03-02T16:05:42.202Z,0.82
2023-03-02T16:10:55.304Z,1.13
2023-03-02T16:16:02.176Z,1.35
2023-03-02T16:21:05.280Z,1.75
2023-03-02T16:26:10.487Z,3.33
2023-03-02T16:31:17.895Z,2.85
2023-03-02T16:36:22.470Z,2.45
2023-03-02T16:41:26.111Z,3.47
2023-03-02T16:46:33.897Z,1.80
2023-03-02T16:51:37.363Z,2.75
2023-03-02T16:56:42.639Z,2.67
2023-03-02T17:01:46.153Z,3.65
2023-03-02T17:07:00.446Z,2.58
2023-03-02T17:12:05.241Z,2.15
2023-03-02T17:17:08.797Z,2.22
2023-03-02T17:22:12.899Z,2.33
2023-03-02T17:27:24.829Z,2.22
2023-03-02T17:32:28.444Z,1.02
2023-03-02T17:37:31.494Z,1.00
2023-03-02T17:42:34.649Z,1.23
2023-03-02T17:47:37.645Z,1.13
2023-03-02T17:52:41.814Z,1.20
2023-03-02T17:57:44.932Z,1.13
2023-03-02T18:02:48.561Z,1.13
2023-03-02T18:07:54.710Z,1.00
2023-03-02T18:12:58.659Z,1.30
2023-03-02T18:18:01.777Z,1.27
2023-03-02T18:23:04.726Z,1.33
2023-03-02T18:28:09.041Z,1.45
2023-03-02T18:33:12.997Z,2.92
2023-03-02T18:38:15.981Z,3.60
2023-03-02T18:43:18.964Z,2.08
2023-03-02T18:48:21.906Z,1.65
2023-03-02T18:53:25.053Z,1.50
2023-03-02T18:58:28.049Z,1.27
2023-03-02T19:03:31.619Z,1.42
2023-03-02T19:08:35.904Z,1.35
2023-03-02T19:13:38.919Z,1.30
2023-03-02T19:23:48.009Z,1.25
2023-03-02T19:28:51.318Z,1.52
2023-03-02T19:33:54.730Z,1.90
2023-03-02T19:38:57.661Z,1.52
2023-03-02T19:44:03.702Z,1.52
2023-03-02T19:49:07.690Z,1.58
2023-03-02T19:54:10.660Z,1.20
2023-03-02T19:59:13.592Z,2.10
2023-03-02T20:04:18.982Z,2.05
2023-03-02T20:09:21.988Z,1.70
2023-03-02T20:14:33.898Z,1.83
2023-03-02T20:19:37.227Z,1.58
2023-03-02T20:24:43.200Z,2.35
2023-03-02T20:29:46.382Z,1.77
2023-03-02T20:34:49.485Z,2.10
2023-03-02T20:39:54.018Z,2.53
2023-03-02T20:44:59.572Z,2.20
2023-03-02T20:50:05.527Z,2.33
2023-03-02T20:55:11.234Z,2.38
2023-03-02T21:00:23.247Z,2.15
2023-03-02T21:05:29.829Z,2.20
2023-03-02T21:10:38.912Z,2.40
2023-03-02T21:15:43.416Z,2.30
2023-03-02T21:20:47.573Z,2.45
2023-03-02T21:25:51.091Z,2.13
2023-03-02T21:30:55.739Z,2.33
2023-03-02T21:36:01.774Z,2.20
2023-03-02T21:41:06.578Z,2.50
2023-03-02T21:46:14.749Z,1.83
2023-03-02T21:51:19.576Z,2.05
2023-03-02T21:56:25.856Z,2.53
2023-03-02T22:01:30.251Z,2.30
2023-03-02T22:06:35.643Z,1.95
2023-03-02T22:11:40.572Z,2.17
2023-03-02T22:16:48.386Z,1.92
2023-03-02T22:21:55.064Z,2.10
2023-03-02T22:32:31.426Z,1.90
2023-03-02T22:37:35.296Z,1.70
2023-03-02T22:42:38.251Z,1.85
2023-03-02T22:47:42.852Z,1.98
2023-03-02T22:52:45.877Z,1.85
2023-03-02T22:57:49.034Z,1.80
2023-03-02T23:02:55.544Z,1.90
2023-03-02T23:08:20.341Z,1.95
2023-03-02T23:13:27.271Z,2.13
2023-03-02T23:18:33.004Z,1.50
2023-03-02T23:28:39.030Z,1.42
2023-03-02T23:33:42.636Z,1.40
2023-03-02T23:38:45.799Z,1.75
2023-03-02T23:43:49.054Z,1.52
2023-03-02T23:48:52.779Z,1.65
2023-03-02T23:53:56.408Z,1.40
2023-03-02T23:58:59.623Z,1.42
